Simpson, Indiana
Current Conditions -  °F | °C
As of 10:15 AM on Wednesday 22 Oct 2014 (Local Time) from KHHG Reporting Station
Clear Clear  
Wind Chill: 42°   Ceiling: Unl
Heat Index: 44°   Visibility: 10mi
Dew Point: 38°   Wind: 5mph
Humidity: 81%   Direction: 50°NE
Pressure: 30.34"   Gusts: NA
Location:  40.9238°N, 85.5001°W
Report Text: KHHG 221415Z AUTO 05004KT 10SM CLR 07/04 A3034 RMK AO2 T00670036
Loading
Personal Weather Stations






























Interactive Weather Map
Tropical Storm Tracking
New forecast layout! Learn more

10-Day Weather Forecast

Advertisements
Track Severe Weather on mobile